sensor_id;sensor_type;location;lat;lon;timestamp;P1;durP1;ratioP1;P2;durP2;ratioP2
59474;SDS011;45288;51.136;16.928;2023-03-21T00:00:46;79.87;;;36.20;;
59474;SDS011;45288;51.136;16.928;2023-03-21T00:03:13;79.50;;;35.15;;
59474;SDS011;45288;51.136;16.928;2023-03-21T00:05:42;74.55;;;37.75;;
59474;SDS011;45288;51.136;16.928;2023-03-21T00:08:10;87.07;;;45.00;;
59474;SDS011;45288;51.136;16.928;2023-03-21T00:10:35;80.32;;;38.58;;
59474;SDS011;45288;51.136;16.928;2023-03-21T00:13:01;74.53;;;32.87;;
59474;SDS011;45288;51.136;16.928;2023-03-21T00:15:27;61.17;;;29.60;;
59474;SDS011;45288;51.136;16.928;2023-03-21T00:17:54;69.45;;;31.55;;
59474;SDS011;45288;51.136;16.928;2023-03-21T00:20:29;61.67;;;29.53;;
59474;SDS011;45288;51.136;16.928;2023-03-21T00:22:54;64.07;;;31.75;;
59474;SDS011;45288;51.136;16.928;2023-03-21T00:25:20;61.20;;;32.00;;
59474;SDS011;45288;51.136;16.928;2023-03-21T00:27:45;65.45;;;33.92;;
59474;SDS011;45288;51.136;16.928;2023-03-21T00:30:11;68.07;;;34.97;;
59474;SDS011;45288;51.136;16.928;2023-03-21T00:32:37;59.30;;;33.88;;
59474;SDS011;45288;51.136;16.928;2023-03-21T00:35:02;67.60;;;34.00;;
59474;SDS011;45288;51.136;16.928;2023-03-21T00:37:28;61.70;;;33.58;;
59474;SDS011;45288;51.136;16.928;2023-03-21T00:39:54;63.43;;;34.47;;
59474;SDS011;45288;51.136;16.928;2023-03-21T00:42:20;61.63;;;34.00;;
59474;SDS011;45288;51.136;16.928;2023-03-21T00:44:45;63.30;;;34.78;;
59474;SDS011;45288;51.136;16.928;2023-03-21T00:47:11;62.17;;;34.03;;
59474;SDS011;45288;51.136;16.928;2023-03-21T00:49:37;62.72;;;33.67;;
59474;SDS011;45288;51.136;16.928;2023-03-21T00:52:04;60.83;;;33.35;;
59474;SDS011;45288;51.136;16.928;2023-03-21T00:54:34;63.13;;;33.70;;
59474;SDS011;45288;51.136;16.928;2023-03-21T00:57:00;64.72;;;33.40;;
59474;SDS011;45288;51.136;16.928;2023-03-21T00:59:28;60.13;;;31.67;;
59474;SDS011;45288;51.136;16.928;2023-03-21T01:01:54;61.20;;;31.73;;
59474;SDS011;45288;51.136;16.928;2023-03-21T01:04:20;52.27;;;28.17;;
59474;SDS011;45288;51.136;16.928;2023-03-21T01:06:51;44.95;;;24.58;;
59474;SDS011;45288;51.136;16.928;2023-03-21T01:09:18;51.13;;;24.40;;
59474;SDS011;45288;51.136;16.928;2023-03-21T01:11:44;57.63;;;25.15;;
59474;SDS011;45288;51.136;16.928;2023-03-21T01:14:10;62.35;;;26.23;;
59474;SDS011;45288;51.136;16.928;2023-03-21T01:16:36;53.70;;;27.55;;
59474;SDS011;45288;51.136;16.928;2023-03-21T01:19:03;64.20;;;25.93;;
59474;SDS011;45288;51.136;16.928;2023-03-21T01:21:29;49.78;;;22.25;;
59474;SDS011;45288;51.136;16.928;2023-03-21T01:23:56;52.63;;;23.13;;
59474;SDS011;45288;51.136;16.928;2023-03-21T01:26:21;46.90;;;20.70;;
59474;SDS011;45288;51.136;16.928;2023-03-21T01:28:47;49.67;;;21.52;;
59474;SDS011;45288;51.136;16.928;2023-03-21T01:31:14;60.95;;;38.67;;
59474;SDS011;45288;51.136;16.928;2023-03-21T01:33:40;38.45;;;20.48;;
59474;SDS011;45288;51.136;16.928;2023-03-21T01:36:06;37.28;;;20.40;;
59474;SDS011;45288;51.136;16.928;2023-03-21T01:38:32;30.77;;;19.27;;
59474;SDS011;45288;51.136;16.928;2023-03-21T01:40:59;39.33;;;20.77;;
59474;SDS011;45288;51.136;16.928;2023-03-21T01:43:31;34.60;;;19.77;;
59474;SDS011;45288;51.136;16.928;2023-03-21T01:46:07;42.85;;;22.38;;
59474;SDS011;45288;51.136;16.928;2023-03-21T01:49:05;35.58;;;21.33;;
59474;SDS011;45288;51.136;16.928;2023-03-21T01:51:32;34.78;;;20.17;;
59474;SDS011;45288;51.136;16.928;2023-03-21T01:54:00;49.25;;;22.48;;
59474;SDS011;45288;51.136;16.928;2023-03-21T01:56:30;31.35;;;20.17;;
59474;SDS011;45288;51.136;16.928;2023-03-21T01:59:05;31.27;;;19.55;;
59474;SDS011;45288;51.136;16.928;2023-03-21T02:01:50;30.97;;;19.80;;
59474;SDS011;45288;51.136;16.928;2023-03-21T02:04:20;33.47;;;20.50;;
59474;SDS011;45288;51.136;16.928;2023-03-21T02:07:13;31.80;;;20.35;;
59474;SDS011;45288;51.136;16.928;2023-03-21T02:09:47;32.42;;;20.77;;
59474;SDS011;45288;51.136;16.928;2023-03-21T02:12:17;35.53;;;21.30;;
59474;SDS011;45288;51.136;16.928;2023-03-21T02:14:44;33.67;;;21.33;;
59474;SDS011;45288;51.136;16.928;2023-03-21T02:17:23;35.50;;;20.23;;
59474;SDS011;45288;51.136;16.928;2023-03-21T02:19:59;45.17;;;22.70;;
59474;SDS011;45288;51.136;16.928;2023-03-21T02:25:15;49.57;;;24.27;;
59474;SDS011;45288;51.136;16.928;2023-03-21T02:27:47;51.97;;;25.55;;
59474;SDS011;45288;51.136;16.928;2023-03-21T02:30:20;58.50;;;27.10;;
59474;SDS011;45288;51.136;16.928;2023-03-21T02:38:10;49.30;;;25.73;;
59474;SDS011;45288;51.136;16.928;2023-03-21T02:43:16;47.93;;;25.27;;
59474;SDS011;45288;51.136;16.928;2023-03-21T02:45:46;48.23;;;25.97;;
59474;SDS011;45288;51.136;16.928;2023-03-21T02:48:30;49.80;;;26.43;;
59474;SDS011;45288;51.136;16.928;2023-03-21T02:50:58;51.10;;;27.02;;
59474;SDS011;45288;51.136;16.928;2023-03-21T02:53:26;50.95;;;26.55;;
59474;SDS011;45288;51.136;16.928;2023-03-21T02:55:54;47.90;;;26.42;;
59474;SDS011;45288;51.136;16.928;2023-03-21T02:58:21;52.10;;;27.43;;
59474;SDS011;45288;51.136;16.928;2023-03-21T03:00:52;50.83;;;26.58;;
59474;SDS011;45288;51.136;16.928;2023-03-21T03:03:33;47.65;;;25.25;;
59474;SDS011;45288;51.136;16.928;2023-03-21T03:06:02;54.13;;;28.52;;
59474;SDS011;45288;51.136;16.928;2023-03-21T03:08:43;49.47;;;25.63;;
59474;SDS011;45288;51.136;16.928;2023-03-21T03:11:23;53.35;;;28.05;;
59474;SDS011;45288;51.136;16.928;2023-03-21T03:13:53;52.47;;;26.80;;
59474;SDS011;45288;51.136;16.928;2023-03-21T03:18:51;56.85;;;28.30;;
59474;SDS011;45288;51.136;16.928;2023-03-21T03:21:22;54.73;;;27.90;;
59474;SDS011;45288;51.136;16.928;2023-03-21T03:23:53;46.90;;;26.75;;
59474;SDS011;45288;51.136;16.928;2023-03-21T03:26:24;43.93;;;25.43;;
59474;SDS011;45288;51.136;16.928;2023-03-21T03:28:55;49.20;;;26.75;;
59474;SDS011;45288;51.136;16.928;2023-03-21T03:31:24;49.72;;;26.33;;
59474;SDS011;45288;51.136;16.928;2023-03-21T03:33:56;46.83;;;26.58;;
59474;SDS011;45288;51.136;16.928;2023-03-21T03:36:25;48.55;;;26.73;;
59474;SDS011;45288;51.136;16.928;2023-03-21T03:38:52;48.28;;;26.70;;
59474;SDS011;45288;51.136;16.928;2023-03-21T03:41:28;47.25;;;26.25;;
59474;SDS011;45288;51.136;16.928;2023-03-21T03:43:58;47.47;;;26.25;;
59474;SDS011;45288;51.136;16.928;2023-03-21T03:46:28;47.97;;;26.50;;
59474;SDS011;45288;51.136;16.928;2023-03-21T03:48:57;48.28;;;28.02;;
59474;SDS011;45288;51.136;16.928;2023-03-21T03:51:26;48.53;;;27.50;;
59474;SDS011;45288;51.136;16.928;2023-03-21T03:54:15;50.22;;;28.00;;
59474;SDS011;45288;51.136;16.928;2023-03-21T03:56:43;49.60;;;28.17;;
59474;SDS011;45288;51.136;16.928;2023-03-21T03:59:10;48.15;;;27.27;;
59474;SDS011;45288;51.136;16.928;2023-03-21T04:01:51;46.55;;;26.38;;
59474;SDS011;45288;51.136;16.928;2023-03-21T04:04:17;49.33;;;27.42;;
59474;SDS011;45288;51.136;16.928;2023-03-21T04:06:43;50.40;;;27.17;;
59474;SDS011;45288;51.136;16.928;2023-03-21T04:09:17;49.55;;;26.98;;
59474;SDS011;45288;51.136;16.928;2023-03-21T04:11:43;51.83;;;27.93;;
59474;SDS011;45288;51.136;16.928;2023-03-21T04:14:09;55.30;;;27.67;;
59474;SDS011;45288;51.136;16.928;2023-03-21T04:16:36;52.53;;;27.50;;
59474;SDS011;45288;51.136;16.928;2023-03-21T04:19:03;57.33;;;29.30;;
59474;SDS011;45288;51.136;16.928;2023-03-21T04:21:29;54.47;;;27.88;;
59474;SDS011;45288;51.136;16.928;2023-03-21T04:23:54;54.17;;;28.13;;
59474;SDS011;45288;51.136;16.928;2023-03-21T04:26:21;57.72;;;28.75;;
59474;SDS011;45288;51.136;16.928;2023-03-21T04:29:07;56.03;;;28.97;;
59474;SDS011;45288;51.136;16.928;2023-03-21T04:31:52;59.38;;;28.92;;
59474;SDS011;45288;51.136;16.928;2023-03-21T04:34:18;61.47;;;29.67;;
59474;SDS011;45288;51.136;16.928;2023-03-21T04:36:49;55.53;;;28.65;;
59474;SDS011;45288;51.136;16.928;2023-03-21T04:39:18;58.75;;;28.83;;
59474;SDS011;45288;51.136;16.928;2023-03-21T04:41:47;59.17;;;29.17;;
59474;SDS011;45288;51.136;16.928;2023-03-21T04:44:14;58.40;;;29.83;;
59474;SDS011;45288;51.136;16.928;2023-03-21T04:46:40;57.63;;;29.58;;
59474;SDS011;45288;51.136;16.928;2023-03-21T04:49:08;58.05;;;29.15;;
59474;SDS011;45288;51.136;16.928;2023-03-21T04:51:34;56.25;;;28.88;;
59474;SDS011;45288;51.136;16.928;2023-03-21T04:54:00;58.65;;;30.35;;
59474;SDS011;45288;51.136;16.928;2023-03-21T04:56:27;59.13;;;29.77;;
59474;SDS011;45288;51.136;16.928;2023-03-21T04:59:05;56.80;;;28.50;;
59474;SDS011;45288;51.136;16.928;2023-03-21T05:01:31;57.35;;;28.65;;
59474;SDS011;45288;51.136;16.928;2023-03-21T05:03:58;58.45;;;28.17;;
59474;SDS011;45288;51.136;16.928;2023-03-21T05:06:25;57.38;;;28.80;;
59474;SDS011;45288;51.136;16.928;2023-03-21T05:08:52;59.08;;;29.60;;
59474;SDS011;45288;51.136;16.928;2023-03-21T05:11:18;57.08;;;29.55;;
59474;SDS011;45288;51.136;16.928;2023-03-21T05:13:44;57.30;;;29.63;;
59474;SDS011;45288;51.136;16.928;2023-03-21T05:16:10;59.03;;;29.85;;
59474;SDS011;45288;51.136;16.928;2023-03-21T05:18:37;57.20;;;28.45;;
59474;SDS011;45288;51.136;16.928;2023-03-21T05:21:12;60.20;;;29.90;;
59474;SDS011;45288;51.136;16.928;2023-03-21T05:23:39;55.53;;;28.33;;
59474;SDS011;45288;51.136;16.928;2023-03-21T05:26:05;62.73;;;29.17;;
59474;SDS011;45288;51.136;16.928;2023-03-21T05:28:49;60.42;;;30.02;;
59474;SDS011;45288;51.136;16.928;2023-03-21T05:31:16;61.58;;;29.70;;
59474;SDS011;45288;51.136;16.928;2023-03-21T05:33:44;58.03;;;28.65;;
59474;SDS011;45288;51.136;16.928;2023-03-21T05:36:13;58.65;;;29.55;;
59474;SDS011;45288;51.136;16.928;2023-03-21T05:38:39;57.95;;;28.98;;
59474;SDS011;45288;51.136;16.928;2023-03-21T05:41:14;60.85;;;28.95;;
59474;SDS011;45288;51.136;16.928;2023-03-21T05:43:40;68.20;;;29.75;;
59474;SDS011;45288;51.136;16.928;2023-03-21T05:46:06;50.75;;;27.92;;
59474;SDS011;45288;51.136;16.928;2023-03-21T05:48:32;55.90;;;28.77;;
59474;SDS011;45288;51.136;16.928;2023-03-21T05:51:25;59.15;;;28.63;;
59474;SDS011;45288;51.136;16.928;2023-03-21T05:53:50;62.17;;;28.80;;
59474;SDS011;45288;51.136;16.928;2023-03-21T05:56:16;62.47;;;29.33;;
59474;SDS011;45288;51.136;16.928;2023-03-21T05:58:49;62.20;;;29.33;;
59474;SDS011;45288;51.136;16.928;2023-03-21T06:01:15;55.42;;;27.80;;
59474;SDS011;45288;51.136;16.928;2023-03-21T06:03:48;58.17;;;28.55;;
59474;SDS011;45288;51.136;16.928;2023-03-21T06:06:15;61.45;;;29.20;;
59474;SDS011;45288;51.136;16.928;2023-03-21T06:08:51;64.97;;;29.17;;
59474;SDS011;45288;51.136;16.928;2023-03-21T06:11:25;64.90;;;29.58;;
59474;SDS011;45288;51.136;16.928;2023-03-21T06:13:58;73.95;;;30.15;;
59474;SDS011;45288;51.136;16.928;2023-03-21T06:16:24;67.13;;;29.33;;
59474;SDS011;45288;51.136;16.928;2023-03-21T06:18:50;69.07;;;28.97;;
59474;SDS011;45288;51.136;16.928;2023-03-21T06:21:27;68.32;;;28.90;;
59474;SDS011;45288;51.136;16.928;2023-03-21T06:23:53;79.68;;;31.20;;
59474;SDS011;45288;51.136;16.928;2023-03-21T06:26:18;76.47;;;29.37;;
59474;SDS011;45288;51.136;16.928;2023-03-21T06:28:48;57.75;;;27.77;;
59474;SDS011;45288;51.136;16.928;2023-03-21T06:31:14;69.63;;;29.93;;
59474;SDS011;45288;51.136;16.928;2023-03-21T06:33:39;63.10;;;27.77;;
59474;SDS011;45288;51.136;16.928;2023-03-21T06:36:05;67.18;;;29.45;;
59474;SDS011;45288;51.136;16.928;2023-03-21T06:38:31;65.07;;;28.98;;
59474;SDS011;45288;51.136;16.928;2023-03-21T06:40:57;68.25;;;30.27;;
59474;SDS011;45288;51.136;16.928;2023-03-21T06:43:26;55.53;;;29.33;;
59474;SDS011;45288;51.136;16.928;2023-03-21T06:45:52;52.33;;;28.38;;
59474;SDS011;45288;51.136;16.928;2023-03-21T06:48:19;54.55;;;28.27;;
59474;SDS011;45288;51.136;16.928;2023-03-21T06:50:49;50.70;;;27.63;;
59474;SDS011;45288;51.136;16.928;2023-03-21T06:53:16;56.20;;;28.52;;
59474;SDS011;45288;51.136;16.928;2023-03-21T06:56:15;62.15;;;29.10;;
59474;SDS011;45288;51.136;16.928;2023-03-21T06:58:41;65.03;;;29.80;;
59474;SDS011;45288;51.136;16.928;2023-03-21T07:01:13;66.47;;;29.70;;
59474;SDS011;45288;51.136;16.928;2023-03-21T07:03:50;64.15;;;28.02;;
59474;SDS011;45288;51.136;16.928;2023-03-21T07:06:19;63.67;;;27.65;;
59474;SDS011;45288;51.136;16.928;2023-03-21T07:08:45;65.10;;;28.45;;
59474;SDS011;45288;51.136;16.928;2023-03-21T07:11:13;67.50;;;27.87;;
59474;SDS011;45288;51.136;16.928;2023-03-21T07:13:39;59.25;;;26.23;;
59474;SDS011;45288;51.136;16.928;2023-03-21T07:16:05;69.30;;;28.98;;
59474;SDS011;45288;51.136;16.928;2023-03-21T07:18:31;61.35;;;26.50;;
59474;SDS011;45288;51.136;16.928;2023-03-21T07:20:56;57.17;;;25.77;;
59474;SDS011;45288;51.136;16.928;2023-03-21T07:23:24;50.22;;;24.50;;
59474;SDS011;45288;51.136;16.928;2023-03-21T07:25:50;50.90;;;23.40;;
59474;SDS011;45288;51.136;16.928;2023-03-21T07:28:16;53.50;;;24.17;;
59474;SDS011;45288;51.136;16.928;2023-03-21T07:30:42;51.25;;;24.10;;
59474;SDS011;45288;51.136;16.928;2023-03-21T07:33:08;52.50;;;23.60;;
59474;SDS011;45288;51.136;16.928;2023-03-21T07:35:35;46.97;;;23.10;;
59474;SDS011;45288;51.136;16.928;2023-03-21T07:38:02;51.50;;;24.33;;
59474;SDS011;45288;51.136;16.928;2023-03-21T07:40:28;51.92;;;24.10;;
59474;SDS011;45288;51.136;16.928;2023-03-21T07:42:54;58.03;;;25.97;;
59474;SDS011;45288;51.136;16.928;2023-03-21T07:45:34;55.00;;;25.35;;
59474;SDS011;45288;51.136;16.928;2023-03-21T07:48:00;58.00;;;26.25;;
59474;SDS011;45288;51.136;16.928;2023-03-21T07:50:26;54.50;;;24.93;;
59474;SDS011;45288;51.136;16.928;2023-03-21T07:52:52;56.25;;;24.90;;
59474;SDS011;45288;51.136;16.928;2023-03-21T07:55:18;54.05;;;25.08;;
59474;SDS011;45288;51.136;16.928;2023-03-21T07:57:44;54.00;;;24.67;;
59474;SDS011;45288;51.136;16.928;2023-03-21T08:00:09;52.97;;;23.83;;
59474;SDS011;45288;51.136;16.928;2023-03-21T08:02:41;48.40;;;22.80;;
59474;SDS011;45288;51.136;16.928;2023-03-21T08:05:06;56.30;;;24.25;;
59474;SDS011;45288;51.136;16.928;2023-03-21T08:07:32;51.30;;;24.67;;
59474;SDS011;45288;51.136;16.928;2023-03-21T08:09:58;63.00;;;26.13;;
59474;SDS011;45288;51.136;16.928;2023-03-21T08:12:24;56.25;;;24.77;;
59474;SDS011;45288;51.136;16.928;2023-03-21T08:14:49;57.20;;;25.03;;
59474;SDS011;45288;51.136;16.928;2023-03-21T08:17:15;57.38;;;25.80;;
59474;SDS011;45288;51.136;16.928;2023-03-21T08:19:41;57.03;;;25.37;;
59474;SDS011;45288;51.136;16.928;2023-03-21T08:22:06;59.00;;;25.02;;
59474;SDS011;45288;51.136;16.928;2023-03-21T08:24:32;52.20;;;24.47;;
59474;SDS011;45288;51.136;16.928;2023-03-21T08:26:59;57.30;;;24.40;;
59474;SDS011;45288;51.136;16.928;2023-03-21T08:29:25;51.97;;;23.42;;
59474;SDS011;45288;51.136;16.928;2023-03-21T08:31:51;58.70;;;24.23;;
59474;SDS011;45288;51.136;16.928;2023-03-21T08:34:17;64.83;;;24.27;;
59474;SDS011;45288;51.136;16.928;2023-03-21T08:36:44;48.42;;;23.73;;
59474;SDS011;45288;51.136;16.928;2023-03-21T08:39:09;51.35;;;24.23;;
59474;SDS011;45288;51.136;16.928;2023-03-21T08:41:36;48.65;;;24.23;;
59474;SDS011;45288;51.136;16.928;2023-03-21T08:44:02;58.22;;;25.63;;
59474;SDS011;45288;51.136;16.928;2023-03-21T08:46:28;57.10;;;25.45;;
59474;SDS011;45288;51.136;16.928;2023-03-21T08:48:54;56.90;;;25.25;;
59474;SDS011;45288;51.136;16.928;2023-03-21T08:51:20;57.80;;;24.57;;
59474;SDS011;45288;51.136;16.928;2023-03-21T08:53:45;52.33;;;24.17;;
59474;SDS011;45288;51.136;16.928;2023-03-21T08:56:11;55.13;;;24.67;;
59474;SDS011;45288;51.136;16.928;2023-03-21T08:58:37;55.90;;;24.23;;
59474;SDS011;45288;51.136;16.928;2023-03-21T09:01:03;60.40;;;25.27;;
59474;SDS011;45288;51.136;16.928;2023-03-21T09:03:29;56.15;;;24.35;;
59474;SDS011;45288;51.136;16.928;2023-03-21T09:05:55;57.90;;;24.75;;
59474;SDS011;45288;51.136;16.928;2023-03-21T09:08:21;61.93;;;24.67;;
59474;SDS011;45288;51.136;16.928;2023-03-21T09:10:56;60.05;;;24.63;;
59474;SDS011;45288;51.136;16.928;2023-03-21T09:13:22;55.90;;;24.58;;
59474;SDS011;45288;51.136;16.928;2023-03-21T09:15:48;56.05;;;24.75;;
59474;SDS011;45288;51.136;16.928;2023-03-21T09:18:14;70.25;;;27.75;;
59474;SDS011;45288;51.136;16.928;2023-03-21T09:20:41;57.80;;;24.85;;
59474;SDS011;45288;51.136;16.928;2023-03-21T09:23:07;62.55;;;25.67;;
59474;SDS011;45288;51.136;16.928;2023-03-21T09:25:33;58.03;;;24.30;;
59474;SDS011;45288;51.136;16.928;2023-03-21T09:27:59;66.30;;;25.77;;
59474;SDS011;45288;51.136;16.928;2023-03-21T09:30:26;63.55;;;24.83;;
59474;SDS011;45288;51.136;16.928;2023-03-21T09:32:52;65.10;;;25.65;;
59474;SDS011;45288;51.136;16.928;2023-03-21T09:35:20;63.25;;;25.85;;
59474;SDS011;45288;51.136;16.928;2023-03-21T09:37:46;59.30;;;24.42;;
59474;SDS011;45288;51.136;16.928;2023-03-21T09:43:24;56.55;;;23.92;;
59474;SDS011;45288;51.136;16.928;2023-03-21T09:45:49;57.65;;;24.65;;
59474;SDS011;45288;51.136;16.928;2023-03-21T09:48:27;75.40;;;27.50;;
59474;SDS011;45288;51.136;16.928;2023-03-21T09:50:57;60.88;;;25.45;;
59474;SDS011;45288;51.136;16.928;2023-03-21T09:53:24;57.80;;;25.23;;
59474;SDS011;45288;51.136;16.928;2023-03-21T09:55:52;60.33;;;25.45;;
59474;SDS011;45288;51.136;16.928;2023-03-21T10:00:51;71.07;;;29.35;;
59474;SDS011;45288;51.136;16.928;2023-03-21T10:03:21;57.22;;;27.23;;
59474;SDS011;45288;51.136;16.928;2023-03-21T10:05:49;71.37;;;30.70;;
59474;SDS011;45288;51.136;16.928;2023-03-21T10:08:19;66.40;;;31.90;;
59474;SDS011;45288;51.136;16.928;2023-03-21T10:10:50;60.42;;;28.65;;
59474;SDS011;45288;51.136;16.928;2023-03-21T10:13:19;72.10;;;38.22;;
59474;SDS011;45288;51.136;16.928;2023-03-21T10:15:45;88.60;;;54.20;;
59474;SDS011;45288;51.136;16.928;2023-03-21T10:18:12;61.55;;;28.45;;
59474;SDS011;45288;51.136;16.928;2023-03-21T10:20:41;58.67;;;26.08;;
59474;SDS011;45288;51.136;16.928;2023-03-21T10:23:09;56.42;;;27.10;;
59474;SDS011;45288;51.136;16.928;2023-03-21T10:25:40;58.50;;;27.33;;
59474;SDS011;45288;51.136;16.928;2023-03-21T10:28:07;56.72;;;27.95;;
59474;SDS011;45288;51.136;16.928;2023-03-21T10:33:03;53.05;;;26.77;;
59474;SDS011;45288;51.136;16.928;2023-03-21T10:35:31;52.53;;;27.00;;
59474;SDS011;45288;51.136;16.928;2023-03-21T10:38:02;60.10;;;28.48;;
59474;SDS011;45288;51.136;16.928;2023-03-21T10:40:28;54.42;;;27.70;;
59474;SDS011;45288;51.136;16.928;2023-03-21T10:43:13;57.30;;;28.53;;
59474;SDS011;45288;51.136;16.928;2023-03-21T10:45:39;56.38;;;28.52;;
59474;SDS011;45288;51.136;16.928;2023-03-21T10:48:06;69.97;;;30.37;;
59474;SDS011;45288;51.136;16.928;2023-03-21T10:50:32;59.53;;;28.88;;
59474;SDS011;45288;51.136;16.928;2023-03-21T10:52:58;61.45;;;28.75;;
59474;SDS011;45288;51.136;16.928;2023-03-21T10:58:53;65.25;;;31.35;;
59474;SDS011;45288;51.136;16.928;2023-03-21T11:00:51;63.17;;;31.03;;
59474;SDS011;45288;51.136;16.928;2023-03-21T11:03:20;57.63;;;30.25;;
59474;SDS011;45288;51.136;16.928;2023-03-21T11:05:47;58.92;;;29.90;;
59474;SDS011;45288;51.136;16.928;2023-03-21T11:08:17;64.60;;;31.05;;
59474;SDS011;45288;51.136;16.928;2023-03-21T11:11:03;61.20;;;30.45;;
59474;SDS011;45288;51.136;16.928;2023-03-21T11:13:39;67.38;;;31.77;;
59474;SDS011;45288;51.136;16.928;2023-03-21T11:16:07;65.13;;;32.13;;
59474;SDS011;45288;51.136;16.928;2023-03-21T11:18:38;58.70;;;29.40;;
59474;SDS011;45288;51.136;16.928;2023-03-21T11:21:05;68.22;;;31.42;;
59474;SDS011;45288;51.136;16.928;2023-03-21T11:23:33;61.63;;;30.67;;
59474;SDS011;45288;51.136;16.928;2023-03-21T11:26:00;62.17;;;30.75;;
59474;SDS011;45288;51.136;16.928;2023-03-21T11:28:31;62.78;;;30.67;;
59474;SDS011;45288;51.136;16.928;2023-03-21T11:30:58;63.10;;;31.15;;
59474;SDS011;45288;51.136;16.928;2023-03-21T11:33:49;55.83;;;29.40;;
59474;SDS011;45288;51.136;16.928;2023-03-21T11:38:42;68.57;;;31.70;;
59474;SDS011;45288;51.136;16.928;2023-03-21T11:41:11;66.60;;;31.30;;
59474;SDS011;45288;51.136;16.928;2023-03-21T11:43:49;62.63;;;32.13;;
59474;SDS011;45288;51.136;16.928;2023-03-21T11:46:15;63.67;;;31.13;;
59474;SDS011;45288;51.136;16.928;2023-03-21T11:48:46;60.20;;;29.70;;
59474;SDS011;45288;51.136;16.928;2023-03-21T11:53:44;62.37;;;30.90;;
59474;SDS011;45288;51.136;16.928;2023-03-21T11:56:31;69.68;;;32.38;;
59474;SDS011;45288;51.136;16.928;2023-03-21T12:01:52;61.90;;;28.55;;
59474;SDS011;45288;51.136;16.928;2023-03-21T12:12:02;67.97;;;31.70;;
59474;SDS011;45288;51.136;16.928;2023-03-21T12:20:02;63.40;;;29.83;;
59474;SDS011;45288;51.136;16.928;2023-03-21T12:25:04;69.50;;;31.93;;
59474;SDS011;45288;51.136;16.928;2023-03-21T12:27:42;62.67;;;30.13;;
59474;SDS011;45288;51.136;16.928;2023-03-21T12:38:13;62.30;;;30.50;;
59474;SDS011;45288;51.136;16.928;2023-03-21T12:40:37;66.20;;;31.25;;
59474;SDS011;45288;51.136;16.928;2023-03-21T12:43:26;58.97;;;30.35;;
59474;SDS011;45288;51.136;16.928;2023-03-21T12:46:03;68.50;;;31.25;;
59474;SDS011;45288;51.136;16.928;2023-03-21T12:51:11;67.63;;;31.65;;
59474;SDS011;45288;51.136;16.928;2023-03-21T12:56:04;74.73;;;31.47;;
59474;SDS011;45288;51.136;16.928;2023-03-21T12:58:34;64.10;;;31.05;;
59474;SDS011;45288;51.136;16.928;2023-03-21T13:01:04;69.60;;;33.72;;
59474;SDS011;45288;51.136;16.928;2023-03-21T13:05:59;69.85;;;30.05;;
59474;SDS011;45288;51.136;16.928;2023-03-21T13:08:32;65.82;;;29.80;;
59474;SDS011;45288;51.136;16.928;2023-03-21T13:11:01;79.35;;;31.40;;
59474;SDS011;45288;51.136;16.928;2023-03-21T13:13:31;61.55;;;27.48;;
59474;SDS011;45288;51.136;16.928;2023-03-21T13:16:01;68.88;;;31.05;;
59474;SDS011;45288;51.136;16.928;2023-03-21T13:23:59;69.28;;;34.83;;
59474;SDS011;45288;51.136;16.928;2023-03-21T13:26:32;60.25;;;30.90;;
59474;SDS011;45288;51.136;16.928;2023-03-21T13:28:58;72.22;;;39.45;;
59474;SDS011;45288;51.136;16.928;2023-03-21T13:31:24;66.93;;;32.50;;
59474;SDS011;45288;51.136;16.928;2023-03-21T13:33:52;66.40;;;36.72;;
59474;SDS011;45288;51.136;16.928;2023-03-21T13:36:23;70.70;;;35.70;;
59474;SDS011;45288;51.136;16.928;2023-03-21T13:38:50;56.28;;;29.35;;
59474;SDS011;45288;51.136;16.928;2023-03-21T13:41:18;69.38;;;28.10;;
59474;SDS011;45288;51.136;16.928;2023-03-21T13:43:52;60.50;;;25.88;;
59474;SDS011;45288;51.136;16.928;2023-03-21T13:53:59;55.63;;;24.53;;
59474;SDS011;45288;51.136;16.928;2023-03-21T13:56:26;54.40;;;23.80;;
59474;SDS011;45288;51.136;16.928;2023-03-21T13:58:53;53.73;;;22.60;;
59474;SDS011;45288;51.136;16.928;2023-03-21T14:04:05;55.35;;;26.23;;
59474;SDS011;45288;51.136;16.928;2023-03-21T14:06:37;57.10;;;32.03;;
59474;SDS011;45288;51.136;16.928;2023-03-21T14:09:04;65.72;;;38.88;;
59474;SDS011;45288;51.136;16.928;2023-03-21T14:11:30;68.10;;;51.58;;
59474;SDS011;45288;51.136;16.928;2023-03-21T14:13:57;74.20;;;57.85;;
59474;SDS011;45288;51.136;16.928;2023-03-21T14:16:24;69.90;;;44.87;;
59474;SDS011;45288;51.136;16.928;2023-03-21T14:18:54;66.38;;;40.10;;
59474;SDS011;45288;51.136;16.928;2023-03-21T14:21:44;75.10;;;49.78;;
59474;SDS011;45288;51.136;16.928;2023-03-21T14:24:12;70.82;;;42.05;;
59474;SDS011;45288;51.136;16.928;2023-03-21T14:26:43;61.70;;;39.33;;
59474;SDS011;45288;51.136;16.928;2023-03-21T14:29:14;71.53;;;38.42;;
59474;SDS011;45288;51.136;16.928;2023-03-21T14:31:44;62.65;;;42.63;;
59474;SDS011;45288;51.136;16.928;2023-03-21T14:34:09;51.47;;;24.80;;
59474;SDS011;45288;51.136;16.928;2023-03-21T14:36:37;46.60;;;23.98;;
59474;SDS011;45288;51.136;16.928;2023-03-21T14:39:04;50.60;;;24.63;;
59474;SDS011;45288;51.136;16.928;2023-03-21T14:41:32;51.73;;;23.83;;
59474;SDS011;45288;51.136;16.928;2023-03-21T14:44:02;62.22;;;34.92;;
59474;SDS011;45288;51.136;16.928;2023-03-21T14:46:28;48.10;;;24.30;;
59474;SDS011;45288;51.136;16.928;2023-03-21T14:48:53;46.27;;;23.93;;
59474;SDS011;45288;51.136;16.928;2023-03-21T14:51:19;46.95;;;23.73;;
59474;SDS011;45288;51.136;16.928;2023-03-21T14:53:45;44.78;;;22.75;;
59474;SDS011;45288;51.136;16.928;2023-03-21T14:56:21;51.72;;;27.80;;
59474;SDS011;45288;51.136;16.928;2023-03-21T14:58:48;47.63;;;26.75;;
59474;SDS011;45288;51.136;16.928;2023-03-21T15:01:27;60.40;;;36.00;;
59474;SDS011;45288;51.136;16.928;2023-03-21T15:03:53;51.88;;;29.20;;
59474;SDS011;45288;51.136;16.928;2023-03-21T15:06:19;67.88;;;40.13;;
59474;SDS011;45288;51.136;16.928;2023-03-21T15:08:55;48.13;;;26.00;;
59474;SDS011;45288;51.136;16.928;2023-03-21T15:11:27;52.75;;;30.95;;
59474;SDS011;45288;51.136;16.928;2023-03-21T15:13:53;77.15;;;52.05;;
59474;SDS011;45288;51.136;16.928;2023-03-21T15:16:20;67.82;;;42.65;;
59474;SDS011;45288;51.136;16.928;2023-03-21T15:18:46;93.87;;;73.27;;
59474;SDS011;45288;51.136;16.928;2023-03-21T15:21:13;109.03;;;73.95;;
59474;SDS011;45288;51.136;16.928;2023-03-21T15:23:42;94.43;;;66.45;;
59474;SDS011;45288;51.136;16.928;2023-03-21T15:26:12;85.28;;;60.00;;
59474;SDS011;45288;51.136;16.928;2023-03-21T15:28:39;82.65;;;55.50;;
59474;SDS011;45288;51.136;16.928;2023-03-21T15:31:05;70.20;;;43.10;;
59474;SDS011;45288;51.136;16.928;2023-03-21T15:33:37;94.97;;;75.53;;
59474;SDS011;45288;51.136;16.928;2023-03-21T15:36:07;72.67;;;45.17;;
59474;SDS011;45288;51.136;16.928;2023-03-21T15:43:43;88.15;;;66.95;;